Time;durP1;ratioP1;P1;durP2;ratioP2;P2;SDS_P1;SDS_P2;PMS_P1;PMS_P2;Temp;Humidity;BMP_temperature;BMP_pressure;BME280_temperature;BME280_humidity;BME280_pressure;Samples;Min_cycle;Max_cycle;Signal;HPM_P1;HPM_P2
2021/05/07 00:01:40;;;;;;;6.30;4.18;;;14.50;60.50;;;;;;5029295;28;20065;-66
2021/05/07 00:04:06;;;;;;;9.32;4.32;;;14.60;60.60;;;;;;5029259;28;20022;-66
2021/05/07 00:06:32;;;;;;;6.15;4.05;;;14.60;60.90;;;;;;5036980;28;20431;-66
2021/05/07 00:09:03;;;;;;;7.00;4.20;;;14.60;60.90;;;;;;5047298;28;20036;-67
2021/05/07 00:11:31;;;;;;;6.70;3.63;;;14.60;60.80;;;;;;5018235;28;20045;-67
2021/05/07 00:13:57;;;;;;;9.25;5.75;;;14.60;60.50;;;;;;5031402;28;20026;-67
2021/05/07 00:16:22;;;;;;;7.15;4.82;;;14.60;60.40;;;;;;5048596;28;20489;-66
2021/05/07 00:18:48;;;;;;;8.43;4.25;;;14.60;60.30;;;;;;5039847;28;20494;-67
2021/05/07 00:21:14;;;;;;;8.07;5.05;;;14.50;60.40;;;;;;5028998;28;20021;-67
2021/05/07 00:23:39;;;;;;;8.68;5.10;;;14.50;60.30;;;;;;5036377;28;20040;-67
2021/05/07 00:26:05;;;;;;;7.25;4.38;;;14.50;60.20;;;;;;5048809;28;20025;-66
2021/05/07 00:28:31;;;;;;;5.45;3.70;;;14.50;60.10;;;;;;5047595;28;20490;-67
2021/05/07 00:30:57;;;;;;;9.63;5.70;;;14.50;59.90;;;;;;5046644;28;20094;-67
2021/05/07 00:33:23;;;;;;;6.32;3.72;;;14.40;60.00;;;;;;5043001;28;20428;-66
2021/05/07 00:35:49;;;;;;;5.72;4.22;;;14.30;59.80;;;;;;5044657;28;20029;-67
2021/05/07 00:38:15;;;;;;;6.65;3.95;;;14.30;59.80;;;;;;5035958;28;20156;-67
2021/05/07 00:40:41;;;;;;;5.78;4.30;;;14.20;59.70;;;;;;5028804;28;20053;-67
2021/05/07 00:43:07;;;;;;;6.75;4.20;;;14.10;59.50;;;;;;5029565;28;20060;-67
2021/05/07 00:45:32;;;;;;;6.22;4.60;;;14.00;59.60;;;;;;5028674;28;20037;-67
2021/05/07 00:48:04;;;;;;;8.02;4.95;;;14.00;59.80;;;;;;5032354;28;20383;-67
2021/05/07 00:50:32;;;;;;;6.05;4.63;;;13.90;59.90;;;;;;5010810;28;20495;-67
2021/05/07 00:52:59;;;;;;;8.10;4.93;;;13.90;60.10;;;;;;5026452;28;20037;-67
2021/05/07 00:55:26;;;;;;;6.13;4.65;;;13.80;60.30;;;;;;5040156;28;20430;-67
2021/05/07 00:57:52;;;;;;;6.47;4.30;;;13.80;60.40;;;;;;5050370;28;20025;-67
2021/05/07 01:00:18;;;;;;;4.50;4.00;;;13.80;60.70;;;;;;5051956;28;20025;-67
2021/05/07 01:02:44;;;;;;;6.30;4.18;;;13.80;61.00;;;;;;5046140;28;20116;-67
2021/05/07 01:05:11;;;;;;;7.63;4.57;;;13.80;61.30;;;;;;5032154;28;20142;-67
2021/05/07 01:07:36;;;;;;;8.48;5.32;;;13.80;61.60;;;;;;5030886;28;20146;-67
2021/05/07 01:10:08;;;;;;;9.65;5.35;;;13.90;61.70;;;;;;5017419;28;20120;-67
2021/05/07 01:12:35;;;;;;;6.22;4.32;;;13.90;61.90;;;;;;5048599;28;20032;-67
2021/05/07 01:15:10;;;;;;;8.68;4.50;;;13.90;61.70;;;;;;5051836;28;20021;-67
2021/05/07 01:17:38;;;;;;;9.18;4.90;;;13.90;61.70;;;;;;5051805;28;20021;-66
2021/05/07 01:20:12;;;;;;;8.73;5.38;;;14.00;61.70;;;;;;5050479;28;20017;-67
2021/05/07 01:22:40;;;;;;;9.15;5.80;;;13.90;61.20;;;;;;5048223;28;20117;-66
2021/05/07 01:25:07;;;;;;;9.98;5.43;;;13.90;61.10;;;;;;5051805;28;20057;-67
2021/05/07 01:27:38;;;;;;;5.95;4.13;;;13.90;60.80;;;;;;5051726;28;20108;-67
2021/05/07 01:30:19;;;;;;;7.15;4.93;;;13.80;60.90;;;;;;5051648;28;20021;-67
2021/05/07 01:32:46;;;;;;;7.25;4.53;;;13.80;61.40;;;;;;5051250;28;20025;-67
2021/05/07 01:35:23;;;;;;;7.75;4.43;;;13.80;61.50;;;;;;5035693;28;20033;-68
2021/05/07 01:37:51;;;;;;;4.75;4.30;;;13.80;61.80;;;;;;5042179;28;20025;-67
2021/05/07 01:40:21;;;;;;;5.90;3.70;;;13.80;61.80;;;;;;5051583;28;20028;-67
2021/05/07 01:42:47;;;;;;;6.70;4.60;;;13.80;61.90;;;;;;5051528;28;20028;-68
2021/05/07 01:45:15;;;;;;;5.93;4.20;;;13.90;61.90;;;;;;5051453;28;20021;-67
2021/05/07 01:47:42;;;;;;;6.68;4.70;;;13.90;61.90;;;;;;5026260;28;20446;-67
2021/05/07 01:50:10;;;;;;;5.22;4.45;;;13.90;61.70;;;;;;5012345;28;20054;-67
2021/05/07 01:52:36;;;;;;;6.47;4.30;;;14.00;61.80;;;;;;5029607;28;20528;-67
2021/05/07 01:55:03;;;;;;;6.65;4.70;;;14.00;61.70;;;;;;5030786;28;20025;-67
2021/05/07 01:57:30;;;;;;;6.40;4.57;;;14.00;61.70;;;;;;5031285;28;20026;-67
2021/05/07 01:59:56;;;;;;;5.97;4.72;;;14.00;61.80;;;;;;5043154;28;20040;-68
2021/05/07 02:02:23;;;;;;;5.55;4.00;;;14.00;61.80;;;;;;5051184;28;20112;-68
2021/05/07 02:04:48;;;;;;;9.27;5.35;;;14.00;61.80;;;;;;5051809;28;20025;-67
2021/05/07 02:07:14;;;;;;;8.18;5.75;;;14.00;61.90;;;;;;5049765;28;20085;-68
2021/05/07 02:09:40;;;;;;;8.38;5.13;;;14.00;62.20;;;;;;5051905;28;20367;-68
2021/05/07 02:12:07;;;;;;;5.10;4.22;;;14.00;62.00;;;;;;5050634;28;20052;-68
2021/05/07 02:14:32;;;;;;;7.35;4.80;;;14.00;61.90;;;;;;5051843;28;20064;-67
2021/05/07 02:17:00;;;;;;;5.68;4.38;;;14.10;61.80;;;;;;5051671;28;20079;-68
2021/05/07 02:19:26;;;;;;;6.97;4.60;;;14.10;61.60;;;;;;5051687;28;20065;-68
2021/05/07 02:21:51;;;;;;;6.95;5.05;;;14.10;61.50;;;;;;5045311;28;20104;-67
2021/05/07 02:24:17;;;;;;;6.05;3.92;;;14.10;62.20;;;;;;5037947;28;20033;-67
2021/05/07 02:26:43;;;;;;;7.30;4.70;;;14.10;61.50;;;;;;5051573;28;20104;-68
2021/05/07 02:29:09;;;;;;;7.93;5.05;;;14.10;61.70;;;;;;5051462;28;20033;-68
2021/05/07 02:31:35;;;;;;;6.28;4.47;;;14.10;61.80;;;;;;5049831;28;20029;-67
2021/05/07 02:34:01;;;;;;;6.10;4.45;;;14.10;61.70;;;;;;5031368;28;20021;-68
2021/05/07 02:36:26;;;;;;;6.75;4.25;;;14.00;61.70;;;;;;5032269;28;20028;-67
2021/05/07 02:38:52;;;;;;;7.88;5.50;;;14.00;61.60;;;;;;5031458;28;20390;-68
2021/05/07 02:41:18;;;;;;;7.13;4.63;;;14.00;61.70;;;;;;5031379;28;20441;-68
2021/05/07 02:43:44;;;;;;;5.18;4.03;;;14.00;61.70;;;;;;5030160;28;20572;-67
2021/05/07 02:46:10;;;;;;;5.80;4.20;;;14.00;61.80;;;;;;5035049;28;20383;-68
2021/05/07 02:48:36;;;;;;;5.30;4.15;;;14.10;61.90;;;;;;5050507;28;20057;-67
2021/05/07 02:51:02;;;;;;;5.93;3.50;;;14.10;61.90;;;;;;5030855;28;20076;-68
2021/05/07 02:53:28;;;;;;;5.63;4.28;;;14.10;62.10;;;;;;5011442;28;20034;-67
2021/05/07 02:55:54;;;;;;;5.45;4.00;;;14.10;62.10;;;;;;5011456;28;20018;-67
2021/05/07 02:58:19;;;;;;;7.03;4.80;;;14.10;62.20;;;;;;5048092;28;20029;-67
2021/05/07 03:00:45;;;;;;;8.73;4.78;;;14.10;62.40;;;;;;5050963;28;20089;-67
2021/05/07 03:03:11;;;;;;;6.13;4.68;;;14.10;62.30;;;;;;5031845;28;20029;-68
2021/05/07 03:05:36;;;;;;;5.03;4.30;;;14.20;62.30;;;;;;5030926;28;20052;-67
2021/05/07 03:08:02;;;;;;;5.47;3.80;;;14.20;62.30;;;;;;5031004;28;20025;-67
2021/05/07 03:10:28;;;;;;;6.68;4.18;;;14.20;62.20;;;;;;5043731;28;20021;-67
2021/05/07 03:12:54;;;;;;;5.13;3.72;;;14.20;62.00;;;;;;5050701;28;20033;-68
2021/05/07 03:15:20;;;;;;;5.32;3.65;;;14.30;61.80;;;;;;5032882;28;20093;-67
2021/05/07 03:17:49;;;;;;;5.60;3.30;;;14.20;61.70;;;;;;5030808;28;20386;-68
2021/05/07 03:20:16;;;;;;;4.28;3.42;;;14.20;61.30;;;;;;5030771;28;20022;-67
2021/05/07 03:22:41;;;;;;;4.57;3.30;;;14.20;61.40;;;;;;5030275;28;20092;-68
2021/05/07 03:25:08;;;;;;;3.42;2.83;;;14.10;61.30;;;;;;5030456;28;20077;-68
2021/05/07 03:27:33;;;;;;;3.97;2.60;;;14.10;61.30;;;;;;5029846;28;20512;-69
2021/05/07 03:29:59;;;;;;;2.65;2.35;;;14.00;61.30;;;;;;5029393;28;20033;-68
2021/05/07 03:32:25;;;;;;;5.43;3.30;;;14.00;61.30;;;;;;5030542;28;20029;-68
2021/05/07 03:34:51;;;;;;;3.03;2.35;;;14.00;61.40;;;;;;5030471;28;20049;-67
2021/05/07 03:37:17;;;;;;;3.58;2.28;;;13.90;61.30;;;;;;5030584;28;20031;-67
2021/05/07 03:39:44;;;;;;;3.75;2.38;;;13.90;61.30;;;;;;5030431;28;20025;-67
2021/05/07 03:42:10;;;;;;;3.47;2.30;;;13.80;61.30;;;;;;5030408;28;20022;-67
2021/05/07 03:44:36;;;;;;;4.53;2.53;;;13.80;61.30;;;;;;5030412;28;20493;-67
2021/05/07 03:47:01;;;;;;;4.45;2.78;;;13.70;61.10;;;;;;5028430;28;20457;-68
2021/05/07 03:49:29;;;;;;;6.75;2.40;;;13.70;61.20;;;;;;5030112;28;20102;-68
2021/05/07 03:51:54;;;;;;;4.43;2.35;;;13.60;61.20;;;;;;5029048;28;20017;-67
2021/05/07 03:54:21;;;;;;;4.30;2.38;;;13.60;61.30;;;;;;5030178;28;20050;-67
2021/05/07 03:56:47;;;;;;;3.50;2.45;;;13.50;61.60;;;;;;5030294;28;20048;-67
2021/05/07 03:59:13;;;;;;;4.03;2.45;;;13.40;61.70;;;;;;5030171;28;20104;-68
2021/05/07 04:01:39;;;;;;;4.80;2.70;;;13.40;62.30;;;;;;5030069;28;20033;-68
2021/05/07 04:04:07;;;;;;;4.15;3.00;;;13.40;62.80;;;;;;5029925;28;20021;-68
2021/05/07 04:06:33;;;;;;;6.13;3.00;;;13.40;63.20;;;;;;5030139;28;20049;-68
2021/05/07 04:11:35;;;;;;;2.60;2.25;;;13.50;63.70;;;;;;5030026;28;20028;-67
2021/05/07 04:14:01;;;;;;;2.20;1.83;;;13.60;63.80;;;;;;5030012;28;20050;-68
2021/05/07 04:16:26;;;;;;;1.75;1.60;;;13.70;63.70;;;;;;5030031;28;20076;-68
2021/05/07 04:18:56;;;;;;;3.67;1.85;;;13.80;63.50;;;;;;5030005;28;20074;-68
2021/05/07 04:21:23;;;;;;;3.97;1.70;;;13.90;63.20;;;;;;5030694;28;20538;-68
2021/05/07 04:23:49;;;;;;;3.13;1.70;;;14.00;63.10;;;;;;5049759;28;20409;-68
2021/05/07 04:26:16;;;;;;;3.80;1.40;;;14.00;63.00;;;;;;5052763;28;20013;-67
2021/05/07 04:28:42;;;;;;;2.10;1.05;;;14.10;62.60;;;;;;5053273;28;20048;-68
2021/05/07 04:31:08;;;;;;;5.30;1.60;;;14.10;61.60;;;;;;5052990;28;20053;-68
2021/05/07 04:33:33;;;;;;;2.28;1.38;;;14.20;61.10;;;;;;5051892;28;20027;-67
2021/05/07 04:35:59;;;;;;;6.63;1.63;;;14.20;60.70;;;;;;5053184;28;20382;-67
2021/05/07 04:38:25;;;;;;;4.07;1.67;;;14.30;61.00;;;;;;5053115;28;20029;-67
2021/05/07 04:40:50;;;;;;;6.03;1.35;;;14.40;61.20;;;;;;5053051;28;20055;-68
2021/05/07 04:43:16;;;;;;;1.63;1.05;;;14.40;61.40;;;;;;5052960;28;20029;-68
2021/05/07 04:45:42;;;;;;;1.67;1.13;;;14.50;61.30;;;;;;5053104;28;20074;-68
2021/05/07 04:48:15;;;;;;;1.90;1.20;;;14.50;60.60;;;;;;5036022;28;20112;-68
2021/05/07 04:50:41;;;;;;;3.20;1.67;;;14.60;60.40;;;;;;5032704;28;20042;-68
2021/05/07 04:53:07;;;;;;;3.67;1.73;;;14.60;59.50;;;;;;5032463;28;20041;-68
2021/05/07 04:55:33;;;;;;;5.47;1.13;;;14.70;59.40;;;;;;5033034;28;20021;-68
2021/05/07 04:57:59;;;;;;;3.45;1.10;;;14.70;59.10;;;;;;5033125;28;20030;-67
2021/05/07 05:00:24;;;;;;;3.67;1.48;;;14.70;58.00;;;;;;5032710;28;20045;-68
2021/05/07 05:02:50;;;;;;;5.88;2.65;;;14.70;57.70;;;;;;5032790;28;20022;-67
2021/05/07 05:05:17;;;;;;;8.13;2.75;;;14.70;57.60;;;;;;5032733;28;20484;-68
2021/05/07 05:07:48;;;;;;;5.05;1.70;;;14.70;57.30;;;;;;5032842;28;20424;-68
2021/05/07 05:10:13;;;;;;;7.00;2.40;;;14.70;57.20;;;;;;5033470;28;20018;-68
2021/05/07 05:12:39;;;;;;;5.40;1.40;;;14.70;56.90;;;;;;5032742;28;20055;-67
2021/05/07 05:15:05;;;;;;;1.63;0.80;;;14.70;57.10;;;;;;5031443;28;20022;-68
2021/05/07 05:17:31;;;;;;;5.15;1.52;;;14.80;57.00;;;;;;5032631;28;20416;-68
2021/05/07 05:19:56;;;;;;;2.50;1.45;;;14.80;57.00;;;;;;5048808;28;20021;-68
2021/05/07 05:22:22;;;;;;;8.63;2.10;;;14.90;56.80;;;;;;5042452;28;20029;-68
2021/05/07 05:24:48;;;;;;;4.93;1.10;;;14.90;56.30;;;;;;5032882;28;20029;-67
2021/05/07 05:27:14;;;;;;;9.95;1.40;;;14.90;56.00;;;;;;5032500;28;20026;-68
2021/05/07 05:29:39;;;;;;;8.32;1.02;;;14.90;56.20;;;;;;5032426;28;20022;-68
2021/05/07 05:32:05;;;;;;;2.92;1.58;;;15.00;56.30;;;;;;5040225;28;20382;-67
2021/05/07 05:34:31;;;;;;;2.92;0.90;;;15.00;56.30;;;;;;5032305;28;20021;-68
2021/05/07 05:36:57;;;;;;;3.67;0.93;;;15.10;56.30;;;;;;5030051;28;20486;-68
2021/05/07 05:39:22;;;;;;;9.52;2.90;;;15.10;56.00;;;;;;5032387;28;20021;-69
2021/05/07 05:41:48;;;;;;;6.60;1.58;;;15.10;56.20;;;;;;5032404;28;20466;-68
2021/05/07 05:44:14;;;;;;;3.05;1.17;;;15.20;56.50;;;;;;5032366;28;20033;-68
2021/05/07 05:46:40;;;;;;;7.32;2.28;;;15.30;56.70;;;;;;5039577;28;20463;-67
2021/05/07 05:49:06;;;;;;;5.22;1.65;;;15.40;57.00;;;;;;5032433;28;20094;-68
2021/05/07 05:51:33;;;;;;;8.43;1.85;;;15.50;56.60;;;;;;5032377;28;20503;-68
2021/05/07 05:53:59;;;;;;;1.73;0.80;;;15.60;55.90;;;;;;5030454;28;20034;-67
2021/05/07 05:56:25;;;;;;;6.22;1.17;;;15.60;55.20;;;;;;5031428;28;20092;-68
2021/05/07 05:58:51;;;;;;;3.28;0.95;;;15.70;54.90;;;;;;5031022;28;20119;-67
2021/05/07 06:01:17;;;;;;;2.03;0.60;;;15.70;54.50;;;;;;5036122;28;20105;-68
2021/05/07 06:03:43;;;;;;;3.25;0.70;;;15.80;54.50;;;;;;5012517;28;20026;-68
2021/05/07 06:06:08;;;;;;;1.83;1.00;;;15.90;54.60;;;;;;5012574;28;20383;-68
2021/05/07 06:08:34;;;;;;;3.42;0.82;;;15.90;54.10;;;;;;5012561;28;20018;-68
2021/05/07 06:11:00;;;;;;;5.07;1.05;;;16.00;54.40;;;;;;5012526;28;20428;-68
2021/05/07 06:13:26;;;;;;;2.90;0.70;;;16.10;54.60;;;;;;5012356;28;20059;-67
2021/05/07 06:15:51;;;;;;;6.35;1.15;;;16.10;54.10;;;;;;5012367;28;20025;-68
2021/05/07 06:18:17;;;;;;;2.55;0.80;;;16.00;53.40;;;;;;5012267;28;20036;-68
2021/05/07 06:20:43;;;;;;;2.17;0.80;;;16.00;53.10;;;;;;5025632;28;20091;-68
2021/05/07 06:23:09;;;;;;;1.25;0.73;;;15.90;53.00;;;;;;5031274;28;20025;-68
2021/05/07 06:25:35;;;;;;;1.60;0.70;;;15.90;53.10;;;;;;5031985;28;20025;-68
2021/05/07 06:28:00;;;;;;;1.40;0.65;;;15.90;53.00;;;;;;5032625;28;20383;-68
2021/05/07 06:30:27;;;;;;;1.63;0.73;;;15.90;53.10;;;;;;5031509;28;20034;-68
2021/05/07 06:32:53;;;;;;;1.25;0.95;;;15.90;53.40;;;;;;5031735;28;20026;-68
2021/05/07 06:35:19;;;;;;;0.75;0.50;;;15.90;53.00;;;;;;5032334;28;20025;-68
2021/05/07 06:37:45;;;;;;;0.77;0.45;;;15.90;53.20;;;;;;5045869;28;20036;-68
2021/05/07 06:40:11;;;;;;;1.02;0.73;;;16.00;53.50;;;;;;5035277;28;20029;-68
2021/05/07 06:42:38;;;;;;;2.58;0.80;;;16.00;53.60;;;;;;5051700;28;20033;-68
2021/05/07 06:45:06;;;;;;;2.08;0.60;;;16.00;53.70;;;;;;5051502;28;20031;-68
2021/05/07 06:47:31;;;;;;;0.82;0.47;;;16.00;54.10;;;;;;5050908;28;20025;-68
2021/05/07 06:49:57;;;;;;;2.22;0.90;;;16.00;54.20;;;;;;5050954;28;20065;-68
2021/05/07 06:52:23;;;;;;;0.98;0.60;;;16.00;54.00;;;;;;5043019;28;20063;-68
2021/05/07 06:54:50;;;;;;;1.17;0.50;;;16.00;54.60;;;;;;5031459;28;20096;-68
2021/05/07 06:57:16;;;;;;;1.80;0.85;;;16.00;55.00;;;;;;5032271;28;20024;-68
2021/05/07 06:59:43;;;;;;;1.20;0.80;;;16.00;55.20;;;;;;5031294;28;20404;-68
2021/05/07 07:02:09;;;;;;;2.20;0.60;;;16.10;55.40;;;;;;5042803;28;20029;-68
2021/05/07 07:04:35;;;;;;;1.52;0.82;;;16.10;54.70;;;;;;5032182;28;20403;-68
2021/05/07 07:07:00;;;;;;;1.58;0.40;;;16.10;54.70;;;;;;5032071;28;20070;-68
2021/05/07 07:09:26;;;;;;;0.70;0.50;;;16.20;54.40;;;;;;5014893;28;20030;-68
2021/05/07 07:11:53;;;;;;;1.30;0.57;;;16.20;54.60;;;;;;5019531;28;20034;-68
2021/05/07 07:14:19;;;;;;;6.40;0.60;;;16.30;54.80;;;;;;5010232;28;20025;-68
2021/05/07 07:16:45;;;;;;;0.70;0.60;;;16.40;54.60;;;;;;5011186;28;20075;-68
2021/05/07 07:19:11;;;;;;;1.42;0.70;;;16.40;54.50;;;;;;5021556;28;20025;-68
2021/05/07 07:21:37;;;;;;;1.30;0.98;;;16.50;54.70;;;;;;5027846;28;20301;-68
2021/05/07 07:24:03;;;;;;;1.55;0.68;;;16.60;54.60;;;;;;5030208;28;20424;-68
2021/05/07 07:26:28;;;;;;;1.02;0.60;;;16.60;54.40;;;;;;5029251;28;20029;-68
2021/05/07 07:28:55;;;;;;;0.80;0.70;;;16.70;54.30;;;;;;5030667;28;20068;-68
2021/05/07 07:31:22;;;;;;;1.30;0.50;;;16.80;54.00;;;;;;5030109;28;20139;-68
2021/05/07 07:33:48;;;;;;;2.28;0.85;;;16.80;54.60;;;;;;5023687;28;20431;-67
2021/05/07 07:36:14;;;;;;;1.08;0.70;;;16.90;54.80;;;;;;5027662;28;20018;-68
2021/05/07 07:38:40;;;;;;;2.03;0.80;;;16.90;54.50;;;;;;5029238;28;20032;-68
2021/05/07 07:41:06;;;;;;;2.15;0.80;;;16.90;54.80;;;;;;5030088;28;20025;-68
2021/05/07 07:43:33;;;;;;;1.08;0.75;;;16.90;55.50;;;;;;5030337;28;20026;-68
2021/05/07 07:45:59;;;;;;;2.45;1.02;;;17.00;55.40;;;;;;5030257;28;20112;-68
2021/05/07 07:48:25;;;;;;;0.73;0.63;;;17.10;55.30;;;;;;5029450;28;20125;-67
2021/05/07 07:50:50;;;;;;;1.35;0.85;;;17.10;54.90;;;;;;5029110;28;20499;-68
2021/05/07 07:53:16;;;;;;;1.42;0.70;;;17.20;55.00;;;;;;5029562;28;20037;-68
2021/05/07 07:55:42;;;;;;;5.00;0.82;;;17.30;54.30;;;;;;5030134;28;20029;-68
2021/05/07 07:58:08;;;;;;;4.82;1.90;;;17.40;54.70;;;;;;5029863;28;20026;-68
2021/05/07 08:00:34;;;;;;;4.32;1.48;;;17.50;54.80;;;;;;5010947;28;20022;-68
2021/05/07 08:03:00;;;;;;;8.77;2.35;;;17.60;54.60;;;;;;5026316;28;20052;-68
2021/05/07 08:05:26;;;;;;;5.38;1.58;;;17.80;54.70;;;;;;5029863;28;20462;-68
2021/05/07 08:07:57;;;;;;;2.03;1.13;;;17.90;54.40;;;;;;5028574;28;20088;-68
2021/05/07 08:10:22;;;;;;;2.00;1.05;;;18.00;53.50;;;;;;5028028;28;20486;-68
2021/05/07 08:12:48;;;;;;;4.40;2.25;;;18.10;53.20;;;;;;5028614;28;20090;-68
2021/05/07 08:15:14;;;;;;;6.70;1.67;;;18.10;52.50;;;;;;5028379;28;20047;-68
2021/05/07 08:17:40;;;;;;;2.00;1.10;;;18.10;52.50;;;;;;5027765;28;20025;-68
2021/05/07 08:20:07;;;;;;;1.27;0.90;;;18.10;51.70;;;;;;5029010;28;20106;-68
2021/05/07 08:22:33;;;;;;;2.28;0.95;;;18.10;52.40;;;;;;5028809;28;20534;-68
2021/05/07 08:24:59;;;;;;;3.65;1.00;;;18.10;52.50;;;;;;5031496;28;20599;-68
2021/05/07 08:27:26;;;;;;;4.30;0.90;;;18.10;52.90;;;;;;5027756;28;20428;-68
2021/05/07 08:29:52;;;;;;;6.28;1.63;;;18.20;52.80;;;;;;5038558;28;20071;-68
2021/05/07 08:32:17;;;;;;;4.53;1.50;;;18.20;52.10;;;;;;5020400;28;20065;-68
2021/05/07 08:34:44;;;;;;;1.25;0.80;;;18.20;52.50;;;;;;5028666;28;20025;-68
2021/05/07 08:37:11;;;;;;;1.60;0.40;;;18.10;52.00;;;;;;5028482;28;20544;-68
2021/05/07 08:39:38;;;;;;;1.23;0.60;;;17.80;51.60;;;;;;5029352;28;20112;-67
2021/05/07 08:42:06;;;;;;;0.40;0.40;;;17.60;51.60;;;;;;5029967;28;20022;-68
2021/05/07 08:44:32;;;;;;;0.70;0.52;;;17.30;52.10;;;;;;5009462;28;20364;-66
2021/05/07 08:46:58;;;;;;;1.48;0.70;;;17.20;53.00;;;;;;5022902;28;20032;-66
2021/05/07 08:49:25;;;;;;;0.80;0.60;;;17.10;53.70;;;;;;5028559;28;20046;-67
2021/05/07 08:51:51;;;;;;;1.65;0.50;;;17.00;53.70;;;;;;5026511;28;20029;-66
2021/05/07 08:54:17;;;;;;;2.22;0.70;;;17.00;55.00;;;;;;5028329;28;20021;-66
2021/05/07 08:56:44;;;;;;;1.08;0.65;;;17.00;54.90;;;;;;5029318;28;20499;-67
2021/05/07 08:59:09;;;;;;;0.95;0.68;;;17.00;55.00;;;;;;5028145;28;20037;-67
2021/05/07 09:01:46;;;;;;;1.25;0.47;;;17.00;54.00;;;;;;5008643;28;20026;-67
2021/05/07 09:04:15;;;;;;;1.10;0.55;;;17.10;53.70;;;;;;5021064;28;20104;-66
2021/05/07 09:06:52;;;;;;;1.75;0.50;;;17.10;53.40;;;;;;5034772;28;20044;-67
2021/05/07 09:09:28;;;;;;;0.30;0.20;;;17.10;53.50;;;;;;5048526;28;20043;-66
2021/05/07 09:11:55;;;;;;;0.40;0.40;;;17.10;53.10;;;;;;5050455;28;20029;-67
2021/05/07 09:14:22;;;;;;;2.00;0.60;;;17.10;53.60;;;;;;5037220;28;20356;-67
2021/05/07 09:16:51;;;;;;;0.52;0.40;;;17.10;54.10;;;;;;5031557;28;20067;-66
2021/05/07 09:19:21;;;;;;;1.02;0.57;;;17.10;53.50;;;;;;5031397;28;20499;-68
2021/05/07 09:21:47;;;;;;;0.60;0.50;;;17.20;53.50;;;;;;5042187;28;20064;-67
2021/05/07 09:24:13;;;;;;;0.47;0.40;;;17.30;53.50;;;;;;5041314;28;20029;-67
2021/05/07 09:26:50;;;;;;;0.85;0.40;;;17.50;53.40;;;;;;5048823;28;20719;-68
2021/05/07 09:29:24;;;;;;;0.35;0.32;;;17.70;53.70;;;;;;5051232;28;20049;-67
2021/05/07 09:31:51;;;;;;;0.93;0.40;;;17.90;53.00;;;;;;5051381;28;20057;-67
2021/05/07 09:34:19;;;;;;;0.98;0.47;;;18.10;51.70;;;;;;5051476;28;20052;-68
2021/05/07 09:36:45;;;;;;;0.35;0.35;;;18.30;49.90;;;;;;5036281;28;20079;-67
2021/05/07 09:39:13;;;;;;;2.33;0.35;;;18.50;49.50;;;;;;5031336;28;20021;-67
2021/05/07 09:41:44;;;;;;;0.40;0.30;;;18.70;48.70;;;;;;5031344;28;20065;-68
2021/05/07 09:44:23;;;;;;;0.60;0.30;;;18.70;47.50;;;;;;5026277;28;20105;-67
2021/05/07 09:46:51;;;;;;;0.30;0.20;;;18.90;48.10;;;;;;5031000;28;20033;-68
2021/05/07 09:49:28;;;;;;;0.63;0.55;;;18.90;47.80;;;;;;5030965;28;20127;-67
2021/05/07 09:51:55;;;;;;;0.82;0.28;;;19.00;46.50;;;;;;5027675;28;20026;-68
2021/05/07 09:54:21;;;;;;;0.38;0.30;;;18.90;45.30;;;;;;5011495;28;20584;-68
2021/05/07 09:56:48;;;;;;;0.85;0.40;;;18.90;46.00;;;;;;5029846;28;20037;-68
2021/05/07 09:59:15;;;;;;;0.55;0.43;;;18.80;46.20;;;;;;5030369;28;20064;-68
2021/05/07 10:01:44;;;;;;;0.50;0.30;;;18.80;46.00;;;;;;5031190;28;20066;-68
2021/05/07 10:04:12;;;;;;;2.20;0.40;;;18.70;45.80;;;;;;5030764;28;20029;-68
2021/05/07 10:06:38;;;;;;;4.50;0.32;;;18.70;46.20;;;;;;5030320;28;20057;-68
2021/05/07 10:09:04;;;;;;;2.50;0.30;;;18.70;45.80;;;;;;5030647;28;20033;-67
2021/05/07 10:11:39;;;;;;;0.22;0.22;;;18.80;45.30;;;;;;5039571;28;20105;-67
2021/05/07 10:14:11;;;;;;;0.60;0.30;;;18.70;45.10;;;;;;5038287;28;20021;-67
2021/05/07 10:16:38;;;;;;;0.30;0.28;;;18.60;45.50;;;;;;5050872;28;20025;-67
2021/05/07 10:19:06;;;;;;;2.28;0.50;;;18.50;44.50;;;;;;5040704;28;20378;-67
2021/05/07 10:21:42;;;;;;;0.50;0.40;;;18.40;44.50;;;;;;5030259;28;20040;-67
2021/05/07 10:24:16;;;;;;;0.43;0.30;;;18.20;44.40;;;;;;5040226;28;20018;-67
2021/05/07 10:26:51;;;;;;;0.20;0.20;;;18.10;44.70;;;;;;5048610;28;20504;-67
2021/05/07 10:29:21;;;;;;;0.30;0.20;;;18.00;44.80;;;;;;5050125;28;20044;-67
2021/05/07 10:31:52;;;;;;;0.17;0.10;;;18.00;44.40;;;;;;5010839;28;20575;-66
2021/05/07 10:34:19;;;;;;;0.20;0.20;;;17.90;44.20;;;;;;5022320;28;20030;-67
2021/05/07 10:36:53;;;;;;;0.35;0.25;;;17.90;45.40;;;;;;5030279;28;20085;-67
2021/05/07 10:39:21;;;;;;;0.20;0.20;;;18.00;45.30;;;;;;5030015;28;20129;-69
2021/05/07 10:41:48;;;;;;;0.85;0.20;;;18.10;44.90;;;;;;5031272;28;20379;-70
2021/05/07 10:44:14;;;;;;;0.30;0.30;;;18.20;45.40;;;;;;5035240;28;20486;-67
2021/05/07 10:46:45;;;;;;;3.80;0.50;;;18.30;45.20;;;;;;5039958;28;20040;-67
2021/05/07 10:49:11;;;;;;;0.35;0.30;;;18.50;45.50;;;;;;5030177;28;20060;-69
2021/05/07 10:51:37;;;;;;;0.35;0.17;;;18.70;44.90;;;;;;5029401;28;20029;-68
2021/05/07 10:54:14;;;;;;;1.55;0.28;;;18.90;43.60;;;;;;5039869;28;20371;-68
2021/05/07 10:56:42;;;;;;;0.38;0.30;;;19.10;43.90;;;;;;5028287;28;20112;-68
2021/05/07 10:59:19;;;;;;;0.45;0.30;;;19.10;42.90;;;;;;5029638;28;20082;-68
2021/05/07 11:02:02;;;;;;;0.20;0.20;;;19.20;43.10;;;;;;5029812;28;20048;-68
2021/05/07 11:04:41;;;;;;;1.30;0.43;;;19.20;43.10;;;;;;5030537;28;20363;-68
2021/05/07 11:07:06;;;;;;;0.20;0.20;;;19.20;42.70;;;;;;5044825;28;20104;-68
2021/05/07 11:09:32;;;;;;;0.45;0.35;;;19.20;43.40;;;;;;5049020;28;20107;-68
2021/05/07 11:12:03;;;;;;;0.32;0.20;;;19.10;44.70;;;;;;5049722;28;20036;-68
2021/05/07 11:14:34;;;;;;;0.50;0.30;;;19.10;44.60;;;;;;5036770;28;20105;-68
2021/05/07 11:17:00;;;;;;;0.15;0.15;;;18.90;44.50;;;;;;5028482;28;20388;-67
2021/05/07 11:19:29;;;;;;;0.35;0.30;;;18.80;45.00;;;;;;5042097;28;20036;-68
2021/05/07 11:22:05;;;;;;;0.40;0.30;;;18.70;46.00;;;;;;5044211;28;20040;-68
2021/05/07 11:24:39;;;;;;;0.77;0.35;;;18.70;47.80;;;;;;5030632;28;20062;-67
2021/05/07 11:27:26;;;;;;;0.55;0.30;;;18.60;47.90;;;;;;5029075;28;20033;-68
2021/05/07 11:30:13;;;;;;;0.38;0.30;;;18.70;48.50;;;;;;5037323;28;20164;-69
2021/05/07 11:32:39;;;;;;;1.95;0.25;;;18.70;48.20;;;;;;5048294;28;20098;-68
2021/05/07 11:35:07;;;;;;;0.30;0.30;;;18.80;46.60;;;;;;5028068;28;20022;-68
2021/05/07 11:37:35;;;;;;;0.28;0.28;;;18.90;46.80;;;;;;5032788;28;20542;-68
2021/05/07 11:40:03;;;;;;;0.57;0.20;;;18.80;45.00;;;;;;5029480;28;20090;-69
2021/05/07 11:42:32;;;;;;;0.40;0.30;;;18.70;43.50;;;;;;5018893;28;20030;-68
2021/05/07 11:45:03;;;;;;;0.75;0.22;;;18.60;44.20;;;;;;5080027;27;20067;-68
2021/05/07 11:47:32;;;;;;;2.67;0.10;;;18.50;42.60;;;;;;5029312;28;20101;-68
2021/05/07 11:49:58;;;;;;;0.10;0.10;;;18.40;43.00;;;;;;5032356;28;20186;-68
2021/05/07 11:52:39;;;;;;;0.40;0.25;;;18.50;43.40;;;;;;5027387;28;20040;-69
2021/05/07 11:55:07;;;;;;;0.30;0.20;;;18.50;43.50;;;;;;5029083;28;20026;-68
2021/05/07 11:57:33;;;;;;;0.38;0.30;;;18.50;42.60;;;;;;5042841;28;20028;-69
2021/05/07 12:00:01;;;;;;;1.10;0.22;;;18.60;42.50;;;;;;5029054;28;20022;-68
2021/05/07 12:02:31;;;;;;;0.95;0.30;;;18.70;42.70;;;;;;5029314;28;20036;-68
2021/05/07 12:04:57;;;;;;;0.63;0.30;;;18.80;42.20;;;;;;5049333;28;20394;-67
2021/05/07 12:07:30;;;;;;;2.70;0.30;;;18.90;40.80;;;;;;5047400;28;20032;-67
2021/05/07 12:09:57;;;;;;;0.20;0.20;;;19.00;40.90;;;;;;5049173;28;20040;-68
2021/05/07 12:12:24;;;;;;;0.63;0.22;;;19.10;42.00;;;;;;5049411;28;20048;-69
2021/05/07 12:15:01;;;;;;;0.20;0.20;;;19.40;41.70;;;;;;5049367;28;20025;-70
2021/05/07 12:17:37;;;;;;;0.63;0.30;;;19.60;39.60;;;;;;5031001;28;20369;-70
2021/05/07 12:20:04;;;;;;;5.53;1.98;;;19.80;40.00;;;;;;5027894;28;20074;-74
2021/05/07 12:22:33;;;;;;;0.73;0.20;;;19.90;39.50;;;;;;5035587;28;20035;-75
2021/05/07 12:25:21;;;;;;;1.52;0.20;;;19.90;38.90;;;;;;5029668;28;20170;-75
2021/05/07 12:27:49;;;;;;;0.20;0.20;;;19.70;38.50;;;;;;5029819;28;20034;-75
2021/05/07 12:30:15;;;;;;;0.20;0.20;;;19.60;37.70;;;;;;5029745;28;20026;-74
2021/05/07 12:32:52;;;;;;;1.88;0.30;;;19.30;38.10;;;;;;5029602;28;20041;-74
2021/05/07 12:35:18;;;;;;;0.32;0.22;;;19.10;38.20;;;;;;5029726;28;20029;-75
2021/05/07 12:37:45;;;;;;;1.17;0.20;;;18.90;38.70;;;;;;5028429;28;20025;-75
2021/05/07 12:40:14;;;;;;;1.52;0.73;;;18.90;39.20;;;;;;5029709;28;20026;-75
2021/05/07 12:42:40;;;;;;;3.72;0.40;;;18.90;39.50;;;;;;5028401;28;20554;-75
2021/05/07 12:45:06;;;;;;;0.60;0.20;;;18.90;39.70;;;;;;5029586;28;20112;-75
2021/05/07 12:47:32;;;;;;;0.70;0.30;;;19.00;39.30;;;;;;5032930;28;20440;-75
2021/05/07 12:49:59;;;;;;;0.40;0.30;;;19.00;38.60;;;;;;5031589;28;20049;-75
2021/05/07 12:52:24;;;;;;;0.10;0.10;;;18.90;38.20;;;;;;5032550;28;20022;-75